createdAt,value
2023-02-11T00:01:26.880Z,97796.39
2023-02-11T00:03:55.655Z,97790.92
2023-02-11T00:06:25.608Z,97789.67
2023-02-11T00:08:54.348Z,97791.40
2023-02-11T00:11:25.707Z,97790.89
2023-02-11T00:13:53.782Z,97793.51
2023-02-11T00:16:21.984Z,97793.46
2023-02-11T00:18:50.553Z,97791.89
2023-02-11T00:21:22.283Z,97792.27
2023-02-11T00:23:51.431Z,97795.72
2023-02-11T00:26:25.985Z,97796.38
2023-02-11T00:28:54.122Z,97794.30
2023-02-11T00:31:23.735Z,97792.16
2023-02-11T00:33:52.160Z,97790.09
2023-02-11T00:36:25.410Z,97788.80
2023-02-11T00:38:55.494Z,97788.38
2023-02-11T00:41:24.146Z,97783.30
2023-02-11T00:43:53.105Z,97781.34
2023-02-11T00:46:21.554Z,97784.36
2023-02-11T00:48:51.956Z,97785.10
2023-02-11T00:51:22.666Z,97784.45
2023-02-11T00:53:52.152Z,97778.88
2023-02-11T00:56:28.153Z,97775.75
2023-02-11T00:59:02.544Z,97771.94
2023-02-11T01:01:30.590Z,97769.52
2023-02-11T01:03:58.686Z,97766.12
2023-02-11T01:06:26.595Z,97756.63
2023-02-11T01:08:54.642Z,97755.98
2023-02-11T01:11:23.014Z,97751.55
2023-02-11T01:13:51.099Z,97746.46
2023-02-11T01:16:20.660Z,97745.19
2023-02-11T01:18:49.298Z,97741.44
2023-02-11T01:21:19.315Z,97739.20
2023-02-11T01:23:47.765Z,97731.29
2023-02-11T01:26:16.383Z,97732.99
2023-02-11T01:28:44.841Z,97732.44
2023-02-11T01:31:13.119Z,97722.10
2023-02-11T01:33:41.896Z,97719.58
2023-02-11T01:36:11.945Z,97720.52
2023-02-11T01:38:41.145Z,97714.17
2023-02-11T01:41:12.727Z,97712.10
2023-02-11T01:43:44.267Z,97704.64
2023-02-11T01:46:15.478Z,97707.38
2023-02-11T01:48:57.630Z,97706.17
2023-02-11T01:51:32.866Z,97707.48
2023-02-11T01:54:21.761Z,97706.27
2023-02-11T01:57:11.573Z,97700.89
2023-02-11T02:00:15.805Z,97702.27
2023-02-11T02:02:44.105Z,97703.77
2023-02-11T02:05:24.341Z,97704.15
2023-02-11T02:08:23.520Z,97703.41
2023-02-11T02:10:56.534Z,97702.23
2023-02-11T02:13:26.095Z,97696.23
2023-02-11T02:16:20.297Z,97690.92
2023-02-11T02:19:19.830Z,97685.75
2023-02-11T02:22:15.414Z,97683.86
2023-02-11T02:25:18.864Z,97678.37
2023-02-11T02:27:49.575Z,97678.60
2023-02-11T02:30:26.545Z,97679.15
2023-02-11T02:33:21.708Z,97675.29
2023-02-11T02:35:58.506Z,97672.94
2023-02-11T02:38:30.593Z,97674.30
2023-02-11T02:41:10.279Z,97671.73
2023-02-11T02:43:43.108Z,97663.80
2023-02-11T02:46:19.744Z,97657.39
2023-02-11T02:48:55.126Z,97653.70
2023-02-11T02:51:48.835Z,97655.37
2023-02-11T02:54:38.804Z,97656.56
2023-02-11T02:57:33.066Z,97659.23
2023-02-11T03:04:42.897Z,97665.25
2023-02-11T03:07:28.774Z,97668.81
2023-02-11T03:10:08.703Z,97660.73
2023-02-11T03:12:38.656Z,97657.33
2023-02-11T03:15:07.749Z,97657.13
2023-02-11T03:17:39.605Z,97660.36
2023-02-11T03:20:11.462Z,97658.76
2023-02-11T03:23:12.782Z,97661.83
2023-02-11T03:26:02.933Z,97667.80
2023-02-11T03:28:37.475Z,97663.13
2023-02-11T03:31:19.293Z,97659.39
2023-02-11T03:34:08.792Z,97656.54
2023-02-11T03:36:48.064Z,97654.39
2023-02-11T03:39:30.808Z,97653.08
2023-02-11T03:42:02.175Z,97654.83
2023-02-11T03:44:36.797Z,97652.98
2023-02-11T03:47:10.222Z,97647.77
2023-02-11T03:49:41.827Z,97648.13
2023-02-11T03:52:12.447Z,97651.27
2023-02-11T03:54:43.599Z,97653.09
2023-02-11T03:57:11.708Z,97648.14
2023-02-11T04:00:00.620Z,97642.87
2023-02-11T04:02:32.559Z,97640.66
2023-02-11T04:05:01.521Z,97641.48
2023-02-11T04:07:29.882Z,97638.67
2023-02-11T04:09:57.851Z,97636.17
2023-02-11T04:12:26.625Z,97630.70
2023-02-11T04:14:54.706Z,97630.55
2023-02-11T04:17:22.898Z,97629.25
2023-02-11T04:19:50.905Z,97625.61
2023-02-11T04:22:18.817Z,97626.64
2023-02-11T04:24:46.905Z,97625.27
2023-02-11T04:27:15.087Z,97621.77
2023-02-11T04:29:43.172Z,97617.93
2023-02-11T04:32:11.813Z,97617.02
2023-02-11T04:34:40.176Z,97615.43
2023-02-11T04:37:08.513Z,97615.59
2023-02-11T04:39:36.811Z,97610.83
2023-02-11T04:42:05.040Z,97609.52
2023-02-11T04:44:33.064Z,97610.86
2023-02-11T04:47:01.206Z,97607.30
2023-02-11T04:49:29.352Z,97606.93
2023-02-11T04:51:57.376Z,97604.54
2023-02-11T04:54:25.517Z,97602.66
2023-02-11T04:56:53.527Z,97598.26
2023-02-11T04:59:21.746Z,97595.02
2023-02-11T05:01:50.068Z,97598.77
2023-02-11T05:04:18.411Z,97598.33
2023-02-11T05:06:46.472Z,97604.31
2023-02-11T05:09:15.275Z,97605.14
2023-02-11T05:11:43.413Z,97607.59
2023-02-11T05:14:11.454Z,97611.62
2023-02-11T05:16:39.826Z,97612.85
2023-02-11T05:19:08.010Z,97616.33
2023-02-11T05:21:35.952Z,97617.84
2023-02-11T05:24:04.198Z,97626.13
2023-02-11T05:26:32.732Z,97624.67
2023-02-11T05:29:00.972Z,97625.40
2023-02-11T05:31:29.156Z,97622.81
2023-02-11T05:33:57.269Z,97624.58
2023-02-11T05:36:25.415Z,97619.24
2023-02-11T05:38:53.482Z,97615.81
2023-02-11T05:41:22.021Z,97612.94
2023-02-11T05:43:53.861Z,97614.20
2023-02-11T05:46:22.072Z,97607.58
2023-02-11T05:48:50.167Z,97603.58
2023-02-11T05:51:18.352Z,97602.07
2023-02-11T05:53:46.364Z,97599.70
2023-02-11T05:56:14.767Z,97598.81
2023-02-11T05:58:42.918Z,97600.77
2023-02-11T06:01:11.000Z,97599.52
2023-02-11T06:03:39.012Z,97598.54
2023-02-11T06:06:10.786Z,97595.71
2023-02-11T06:08:39.806Z,97595.99
2023-02-11T06:11:07.760Z,97594.92
2023-02-11T06:13:36.691Z,97595.46
2023-02-11T06:16:05.094Z,97594.95
2023-02-11T06:18:33.748Z,97595.43
2023-02-11T06:21:01.766Z,97595.58
2023-02-11T06:23:30.503Z,97599.84
2023-02-11T06:26:09.028Z,97598.75
2023-02-11T06:28:39.319Z,97598.28
2023-02-11T06:31:09.807Z,97600.52
2023-02-11T06:33:38.853Z,97600.18
2023-02-11T06:36:18.636Z,97599.65
2023-02-11T06:38:48.153Z,97603.80
2023-02-11T06:41:20.243Z,97602.17
2023-02-11T06:43:48.937Z,97598.14
2023-02-11T06:46:17.580Z,97594.65
2023-02-11T06:48:46.156Z,97595.27
2023-02-11T06:51:14.980Z,97595.40
2023-02-11T06:53:45.707Z,97595.48
2023-02-11T06:56:17.524Z,97597.83
2023-02-11T06:58:46.026Z,97590.88
2023-02-11T07:01:16.486Z,97582.65
2023-02-11T07:03:46.097Z,97581.75
2023-02-11T07:06:17.426Z,97582.20
2023-02-11T07:08:46.166Z,97581.64
2023-02-11T07:11:21.412Z,97582.71
2023-02-11T07:13:49.289Z,97581.23
2023-02-11T07:16:18.852Z,97584.68
2023-02-11T07:18:47.999Z,97594.46
2023-02-11T07:21:19.300Z,97595.34
2023-02-11T07:23:49.021Z,97595.42
2023-02-11T07:26:20.082Z,97591.88
2023-02-11T07:28:48.133Z,97588.70
2023-02-11T07:31:25.766Z,97591.80
2023-02-11T07:33:56.720Z,97597.71
2023-02-11T07:36:24.887Z,97597.94
2023-02-11T07:38:53.143Z,97596.58
2023-02-11T07:41:23.191Z,97595.16
2023-02-11T07:43:51.610Z,97595.52
2023-02-11T07:46:22.559Z,97591.13
2023-02-11T07:48:51.411Z,97591.95
2023-02-11T07:51:26.104Z,97583.55
2023-02-11T07:53:55.579Z,97584.81
2023-02-11T07:56:23.776Z,97587.48
2023-02-11T07:58:52.195Z,97589.66
2023-02-11T08:01:25.302Z,97584.15
2023-02-11T08:03:54.102Z,97578.66
2023-02-11T08:06:24.895Z,97579.02
2023-02-11T08:08:53.299Z,97575.38
2023-02-11T08:11:26.407Z,97574.85
2023-02-11T08:13:56.033Z,97572.14
2023-02-11T08:16:50.011Z,97574.21
2023-02-11T08:19:18.154Z,97571.52
2023-02-11T08:21:47.137Z,97563.25
2023-02-11T08:24:15.954Z,97555.02
2023-02-11T08:26:44.683Z,97546.50
2023-02-11T08:29:15.094Z,97540.34
2023-02-11T08:31:46.114Z,97537.89
2023-02-11T08:34:14.747Z,97542.50
2023-02-11T08:36:43.474Z,97544.02
2023-02-11T08:39:22.608Z,97540.95
2023-02-11T08:41:56.866Z,97536.45
2023-02-11T08:44:25.263Z,97532.38
2023-02-11T08:46:53.407Z,97530.92
2023-02-11T08:49:22.274Z,97532.17
2023-02-11T08:51:50.562Z,97533.58
2023-02-11T08:54:18.442Z,97533.30
2023-02-11T08:56:46.446Z,97530.22
2023-02-11T08:59:15.482Z,97524.66
2023-02-11T09:01:44.650Z,97519.11
2023-02-11T09:04:13.193Z,97517.68
2023-02-11T09:06:41.375Z,97517.02
2023-02-11T09:09:14.509Z,97514.30
2023-02-11T09:11:44.781Z,97503.74
2023-02-11T09:14:22.526Z,97496.27
2023-02-11T09:16:51.863Z,97490.32
2023-02-11T09:19:21.013Z,97493.04
2023-02-11T09:21:49.534Z,97496.63
2023-02-11T09:24:18.044Z,97496.11
2023-02-11T09:26:46.097Z,97496.27
2023-02-11T09:29:14.350Z,97497.12
2023-02-11T09:31:42.374Z,97497.95
2023-02-11T09:34:11.931Z,97500.15
2023-02-11T09:36:41.579Z,97493.70
2023-02-11T09:39:17.298Z,97490.84
2023-02-11T09:42:00.497Z,97489.80
2023-02-11T09:44:33.502Z,97489.33
2023-02-11T09:47:05.972Z,97488.33
2023-02-11T09:49:44.492Z,97483.89
2023-02-11T09:52:18.421Z,97477.95
2023-02-11T09:54:58.219Z,97475.04
2023-02-11T09:57:35.757Z,97480.98
2023-02-11T10:00:24.117Z,97480.83
2023-02-11T10:02:58.129Z,97477.42
2023-02-11T10:05:56.532Z,97478.10
2023-02-11T10:08:38.151Z,97475.05
2023-02-11T10:11:31.245Z,97478.46
2023-02-11T10:14:21.813Z,97473.52
2023-02-11T10:17:15.434Z,97465.52
2023-02-11T10:20:11.149Z,97462.94
2023-02-11T10:23:22.690Z,97457.48
2023-02-11T10:25:54.671Z,97451.86
2023-02-11T10:28:36.933Z,97451.17
2023-02-11T10:31:22.999Z,97453.05
2023-02-11T10:34:03.516Z,97456.78
2023-02-11T10:36:35.874Z,97459.17
2023-02-11T10:39:31.901Z,97456.10
2023-02-11T10:42:05.493Z,97448.73
2023-02-11T10:44:39.370Z,97446.00
2023-02-11T10:47:23.691Z,97442.08
2023-02-11T10:49:51.769Z,97432.55
2023-02-11T10:52:25.221Z,97428.44
2023-02-11T10:55:14.586Z,97428.14
2023-02-11T10:57:50.903Z,97417.70
2023-02-11T11:00:36.494Z,97409.49
2023-02-11T11:03:25.500Z,97409.94
2023-02-11T11:06:00.296Z,97401.20
2023-02-11T11:08:47.939Z,97387.73
2023-02-11T11:11:19.188Z,97380.33
2023-02-11T11:13:53.146Z,97375.08
2023-02-11T11:16:25.877Z,97371.19
2023-02-11T11:19:21.624Z,97369.52
2023-02-11T11:21:57.169Z,97368.02
2023-02-11T11:24:29.478Z,97360.33
2023-02-11T11:27:01.606Z,97354.62
2023-02-11T11:29:39.457Z,97346.83
2023-02-11T11:32:20.539Z,97343.83
2023-02-11T11:34:52.427Z,97338.38
2023-02-11T11:37:24.836Z,97330.89
2023-02-11T11:40:10.501Z,97328.67
2023-02-11T11:42:39.973Z,97325.09
2023-02-11T11:45:19.826Z,97326.60
2023-02-11T11:47:54.307Z,97328.42
2023-02-11T11:50:27.848Z,97319.34
2023-02-11T11:52:55.722Z,97314.73
2023-02-11T11:55:42.469Z,97317.33
2023-02-11T11:58:15.909Z,97319.10
2023-02-11T12:00:53.643Z,97318.98
2023-02-11T12:03:27.954Z,97319.41
2023-02-11T12:06:29.379Z,97315.23
2023-02-11T12:09:34.158Z,97308.05
2023-02-11T12:12:21.012Z,97301.63
2023-02-11T12:15:10.334Z,97296.48
2023-02-11T12:17:56.884Z,97292.67
2023-02-11T12:20:27.731Z,97287.42
2023-02-11T12:23:17.649Z,97279.89
2023-02-11T12:26:06.623Z,97275.23
2023-02-11T12:28:34.845Z,97268.42
2023-02-11T12:31:13.198Z,97268.67
2023-02-11T12:34:08.401Z,97269.27
2023-02-11T12:36:41.951Z,97265.41
2023-02-11T12:39:24.525Z,97263.98
2023-02-11T12:42:30.857Z,97265.88
2023-02-11T12:45:04.722Z,97272.65
2023-02-11T12:47:32.682Z,97273.83
2023-02-11T12:50:13.365Z,97264.58
2023-02-11T12:52:50.445Z,97258.98
2023-02-11T12:55:28.216Z,97254.05
2023-02-11T12:58:01.587Z,97254.37
2023-02-11T13:00:51.501Z,97250.17
2023-02-11T13:03:32.009Z,97247.83
2023-02-11T13:06:07.959Z,97249.73
2023-02-11T13:08:40.914Z,97240.81
2023-02-11T13:11:16.119Z,97237.73
2023-02-11T13:13:56.406Z,97232.50
2023-02-11T13:16:39.503Z,97229.44
2023-02-11T13:19:13.428Z,97218.84
2023-02-11T13:22:04.921Z,97213.77
2023-02-11T13:24:44.456Z,97209.11
2023-02-11T13:27:18.372Z,97202.10
2023-02-11T13:30:26.908Z,97203.53
2023-02-11T13:32:55.733Z,97203.33
2023-02-11T13:35:39.921Z,97202.78
2023-02-11T13:38:16.789Z,97203.96
2023-02-11T13:40:45.367Z,97209.89
2023-02-11T13:43:23.269Z,97212.86
2023-02-11T13:45:57.834Z,97210.93
2023-02-11T13:48:31.750Z,97211.49
2023-02-11T13:51:34.567Z,97210.00
2023-02-11T13:54:04.166Z,97210.39
2023-02-11T13:56:36.676Z,97208.48
2023-02-11T13:59:25.912Z,97206.52
2023-02-11T14:02:12.319Z,97205.17
2023-02-11T14:05:31.253Z,97203.91
2023-02-11T14:08:30.325Z,97202.11
2023-02-11T14:11:14.911Z,97195.88
2023-02-11T14:13:48.866Z,97188.87
2023-02-11T14:16:35.609Z,97180.12
2023-02-11T14:19:06.485Z,97171.92
2023-02-11T14:21:38.952Z,97164.33
2023-02-11T14:24:10.116Z,97159.55
2023-02-11T14:26:41.187Z,97154.80
2023-02-11T14:29:41.145Z,97156.73
2023-02-11T14:32:47.841Z,97163.35
2023-02-11T14:35:18.976Z,97161.59
2023-02-11T14:38:06.525Z,97159.09
2023-02-11T14:40:53.173Z,97154.20
2023-02-11T14:43:29.331Z,97150.84
2023-02-11T14:45:58.895Z,97151.42
2023-02-11T14:48:35.199Z,97155.95
2023-02-11T14:51:06.272Z,97164.05
2023-02-11T14:53:35.218Z,97168.88
2023-02-11T14:56:04.096Z,97166.71
2023-02-11T14:58:32.988Z,97165.78
2023-02-11T15:01:20.987Z,97163.00
2023-02-11T15:03:49.991Z,97165.27
2023-02-11T15:06:21.041Z,97163.60
2023-02-11T15:08:52.488Z,97166.54
2023-02-11T15:11:23.790Z,97170.53
2023-02-11T15:13:55.317Z,97170.42
2023-02-11T15:16:25.670Z,97173.21
2023-02-11T15:19:00.152Z,97175.84
2023-02-11T15:21:32.721Z,97170.80
2023-02-11T15:24:02.840Z,97173.21
2023-02-11T15:26:31.177Z,97171.05
2023-02-11T15:28:59.425Z,97172.13
2023-02-11T15:31:28.529Z,97172.33
2023-02-11T15:34:08.016Z,97175.74
2023-02-11T15:36:37.764Z,97174.41
2023-02-11T15:39:41.037Z,97164.39
2023-02-11T15:42:17.930Z,97156.13
2023-02-11T15:44:49.184Z,97153.95
2023-02-11T15:47:22.738Z,97148.36
2023-02-11T15:49:51.318Z,97139.88
2023-02-11T15:52:25.689Z,97132.75
2023-02-11T15:54:56.501Z,97125.14
2023-02-11T15:57:24.488Z,97123.30
2023-02-11T15:59:54.843Z,97126.88
2023-02-11T16:02:45.258Z,97124.34
2023-02-11T16:05:37.880Z,97122.65
2023-02-11T16:08:26.280Z,97118.58
2023-02-11T16:10:58.637Z,97117.05
2023-02-11T16:13:28.289Z,97109.59
2023-02-11T16:16:05.980Z,97112.98
2023-02-11T16:19:03.162Z,97107.38
2023-02-11T16:21:36.330Z,97103.48
2023-02-11T16:24:07.489Z,97109.08
2023-02-11T16:26:43.254Z,97115.36
2023-02-11T16:29:23.594Z,97108.73
2023-02-11T16:31:53.591Z,97108.39
2023-02-11T16:34:24.662Z,97110.60
2023-02-11T16:36:53.030Z,97115.69
2023-02-11T16:39:22.490Z,97115.17
2023-02-11T16:41:51.883Z,97116.87
2023-02-11T16:44:19.864Z,97122.48
2023-02-11T16:46:48.137Z,97123.66
2023-02-11T16:49:40.905Z,97119.26
2023-02-11T16:52:14.635Z,97115.52
2023-02-11T16:54:42.924Z,97117.21
2023-02-11T16:57:16.151Z,97115.01
2023-02-11T16:59:44.709Z,97111.29
2023-02-11T17:02:22.873Z,97105.52
2023-02-11T17:04:59.151Z,97101.48
2023-02-11T17:07:28.247Z,97102.85
2023-02-11T17:09:56.954Z,97109.64
2023-02-11T17:12:27.850Z,97116.77
2023-02-11T17:14:55.768Z,97121.35
2023-02-11T17:17:23.946Z,97122.71
2023-02-11T17:19:52.224Z,97118.48
2023-02-11T17:22:20.305Z,97113.90
2023-02-11T17:24:48.367Z,97108.48
2023-02-11T17:27:17.234Z,97112.23
2023-02-11T17:29:45.235Z,97103.07
2023-02-11T17:32:13.326Z,97095.77
2023-02-11T17:34:41.456Z,97082.89
2023-02-11T17:37:10.495Z,97063.55
2023-02-11T17:39:40.238Z,97045.91
2023-02-11T17:42:08.900Z,97042.36
2023-02-11T17:44:37.545Z,97051.51
2023-02-11T17:47:05.473Z,97056.93
2023-02-11T17:49:33.512Z,97066.94
2023-02-11T17:52:01.450Z,97080.00
2023-02-11T17:54:29.539Z,97086.29
2023-02-11T17:56:58.583Z,97092.90
2023-02-11T17:59:29.163Z,97103.74
2023-02-11T18:01:57.086Z,97109.33
2023-02-11T18:04:25.008Z,97108.82
2023-02-11T18:06:53.731Z,97107.64
2023-02-11T18:09:22.077Z,97110.02
2023-02-11T18:11:52.559Z,97111.73
2023-02-11T18:14:21.838Z,97110.20
2023-02-11T18:16:51.932Z,97114.41
2023-02-11T18:19:20.419Z,97113.06
2023-02-11T18:21:50.503Z,97119.52
2023-02-11T18:24:19.196Z,97112.73
2023-02-11T18:26:47.115Z,97105.77
2023-02-11T18:29:15.081Z,97096.79
2023-02-11T18:31:43.191Z,97090.17
2023-02-11T18:34:11.569Z,97091.02
2023-02-11T18:36:39.983Z,97095.95
2023-02-11T18:39:08.300Z,97094.76
2023-02-11T18:41:36.382Z,97095.58
2023-02-11T18:44:05.129Z,97090.66
2023-02-11T18:46:33.598Z,97091.16
2023-02-11T18:49:01.645Z,97087.42
2023-02-11T18:51:32.356Z,97087.09
2023-02-11T18:54:01.259Z,97083.86
2023-02-11T18:56:29.396Z,97083.17
2023-02-11T18:59:01.109Z,97091.15
2023-02-11T19:01:31.648Z,97087.42
2023-02-11T19:04:03.618Z,97084.53
2023-02-11T19:06:35.221Z,97085.21
2023-02-11T19:09:15.046Z,97089.96
2023-02-11T19:11:50.516Z,97096.58
2023-02-11T19:14:28.137Z,97093.52
2023-02-11T19:16:58.542Z,97091.14
2023-02-11T19:19:29.241Z,97087.91
2023-02-11T19:21:58.688Z,97092.49
2023-02-11T19:24:28.423Z,97097.25
2023-02-11T19:26:59.356Z,97095.55
2023-02-11T19:29:28.481Z,97091.81
2023-02-11T19:31:56.471Z,97082.14
2023-02-11T19:34:24.869Z,97085.02
2023-02-11T19:36:54.539Z,97089.44
2023-02-11T19:39:24.809Z,97084.02
2023-02-11T19:41:53.279Z,97083.84
2023-02-11T19:44:21.627Z,97091.83
2023-02-11T19:46:50.380Z,97085.21
2023-02-11T19:49:23.221Z,97075.37
2023-02-11T19:51:57.685Z,97074.00
2023-02-11T19:54:27.368Z,97075.36
2023-02-11T19:56:56.113Z,97067.55
2023-02-11T19:59:24.101Z,97063.82
2023-02-11T20:01:53.912Z,97063.13
2023-02-11T20:04:24.065Z,97056.18
2023-02-11T20:06:52.346Z,97059.73
2023-02-11T20:09:21.413Z,97060.25
2023-02-11T20:11:49.798Z,97056.02
2023-02-11T20:14:17.804Z,97053.79
2023-02-11T20:16:49.508Z,97052.27
2023-02-11T20:19:21.736Z,97047.69
2023-02-11T20:21:53.368Z,97044.97
2023-02-11T20:24:22.369Z,97042.77
2023-02-11T20:26:55.331Z,97033.61
2023-02-11T20:29:24.494Z,97028.52
2023-02-11T20:31:53.710Z,97033.45
2023-02-11T20:34:22.271Z,97034.30
2023-02-11T20:36:53.463Z,97030.58
2023-02-11T20:39:23.683Z,97027.88
2023-02-11T20:41:52.499Z,97021.77
2023-02-11T20:44:22.576Z,97012.78
2023-02-11T20:46:52.230Z,97012.10
2023-02-11T20:49:23.067Z,97015.49
2023-02-11T20:51:53.689Z,97016.35
2023-02-11T20:54:23.404Z,97007.19
2023-02-11T20:56:53.785Z,97003.95
2023-02-11T20:59:22.603Z,97006.51
2023-02-11T21:01:55.507Z,97010.73
2023-02-11T21:04:27.217Z,97014.48
2023-02-11T21:06:58.483Z,97013.11
2023-02-11T21:09:29.976Z,97008.36
2023-02-11T21:11:58.875Z,97005.83
2023-02-11T21:14:27.299Z,97008.88
2023-02-11T21:16:55.561Z,97007.17
2023-02-11T21:19:23.856Z,97002.60
2023-02-11T21:21:55.190Z,96994.45
2023-02-11T21:24:23.852Z,96990.38
2023-02-11T21:26:51.832Z,96995.98
2023-02-11T21:29:19.847Z,96992.08
2023-02-11T21:31:48.941Z,96986.63
2023-02-11T21:34:17.870Z,96987.98
2023-02-11T21:36:46.026Z,96995.79
2023-02-11T21:39:14.272Z,96996.13
2023-02-11T21:41:42.472Z,96996.30
2023-02-11T21:44:10.696Z,96997.48
2023-02-11T21:46:41.579Z,96989.86
2023-02-11T21:49:11.177Z,96994.94
2023-02-11T21:51:39.785Z,96995.79
2023-02-11T21:54:11.781Z,96999.52
2023-02-11T21:56:44.630Z,97001.73
2023-02-11T21:59:18.005Z,96993.59
2023-02-11T22:01:47.464Z,96991.88
2023-02-11T22:04:15.702Z,96991.54
2023-02-11T22:06:46.279Z,96989.16
2023-02-11T22:09:18.003Z,96993.91
2023-02-11T22:11:49.707Z,96991.88
2023-02-11T22:14:22.891Z,96988.32
2023-02-11T22:16:52.144Z,97000.38
2023-02-11T22:19:21.702Z,97002.58
2023-02-11T22:21:50.097Z,97000.55
2023-02-11T22:24:18.262Z,97000.38
2023-02-11T22:26:46.894Z,97001.90
2023-02-11T22:29:15.451Z,97002.58
2023-02-11T22:31:44.231Z,96999.02
2023-02-11T22:34:13.141Z,96987.83
2023-02-11T22:36:42.526Z,96990.54
2023-02-11T22:39:13.846Z,96990.88
2023-02-11T22:41:44.757Z,96992.58
2023-02-11T22:44:14.102Z,96999.02
2023-02-11T22:46:42.283Z,96998.52
2023-02-11T22:49:14.047Z,96994.61
2023-02-11T22:51:42.948Z,96991.91
2023-02-11T22:54:16.665Z,96992.42
2023-02-11T22:56:47.165Z,96996.83
2023-02-11T22:59:15.626Z,96997.84
2023-02-11T23:01:44.804Z,96997.85
2023-02-11T23:04:15.706Z,97003.79
2023-02-11T23:06:43.957Z,97001.92
2023-02-11T23:09:14.953Z,97002.59
2023-02-11T23:11:43.240Z,96997.84
2023-02-11T23:14:12.360Z,96995.47
2023-02-11T23:16:41.803Z,96991.91
2023-02-11T23:19:11.156Z,96988.86
2023-02-11T23:21:39.649Z,96983.27
2023-02-11T23:24:11.595Z,96982.75
2023-02-11T23:26:40.991Z,96979.88
2023-02-11T23:29:09.938Z,96976.65
2023-02-11T23:31:40.626Z,96981.56
2023-02-11T23:34:09.651Z,96981.90
2023-02-11T23:36:37.760Z,96977.33
2023-02-11T23:39:06.150Z,96979.20
2023-02-11T23:41:34.315Z,96978.85
2023-02-11T23:44:02.395Z,96978.16
2023-02-11T23:46:30.534Z,96976.46
2023-02-11T23:48:58.614Z,96980.02
2023-02-11T23:51:26.996Z,96977.48
2023-02-11T23:53:56.264Z,96973.23
2023-02-11T23:56:27.059Z,96975.59
2023-02-11T23:58:57.417Z,96977.78
